Aduana, Mexico

6:03 PM EST on December 02, 2016 (GMT -0500)
Paseo del mar Residencial Campestre Cancun | | Change Station

Elev 26 ft 21.10 °N, 86.85 °W | Updated 22 seconds ago

Partly Cloudy
Partly Cloudy
80.4 °F
Feels Like 85 °F
N
2.7
Wind Variable Wind from NE
Gusts 4.9 mph

Today
High -- | Low -- °F
--% Chance of Precip.
Yesterday
High -- | Low -- °F
Precip. -- in
Pressure 29.93 in
Visibility 8.0 miles
Clouds Few 1800 ft
Heat Index 85 °F
Dew Point 74 °F
Humidity 81%
Rainfall 0.00 in
Snow Depth Not available.
7:08 AM 6:05 PM
Waxing Crescent, 11% visible
METAR MMCZ 022244Z 10004KT 8SM FEW018 27/23 A2993 RMK 8/500
Pressure 29.93 in
Visibility 8.0 miles
Clouds Few 1800 ft
Heat Index 85 °F
Dew Point 74 °F
Humidity 81%
Rainfall 0.00 in
Snow Depth Not available.
7:08 AM 6:05 PM
Waxing Crescent, 11% visible
METAR MMCZ 022244Z 10004KT 8SM FEW018 27/23 A2993 RMK 8/500

10-Day Weather Forecast

No radar image for this location.
×

Almanac

Astronomy

Dec. 02, 2016 Rise Set
Actual Time
Civil Twilight
Nautical Twilight
Astronomical Twilight
Moon
Length of Visible Light
Length of Day
Tomorrow will be .
, % of the Moon is Illuminated

Today's Extremes

Country Highs Country Lows

Community

WunderPhotos

Upload Photos

1,955,375 photos uploaded!

WunderBlog® & News

Nearby

Air Quality

  Air Quality AQ Index Pollutant
Not available.

Snow Depth

Station Depth Elevation

Earthquake Activity

City Distance Mag. Time & Date
Minimum magnitude displayed is 2.5.

Coastal Water Temperatures

Place Temperature

Stations

Nearby Weather Stations

Station Location Temp. Windchill Dew Point Humidity Wind Precip. Elev Updated Type